createdAt,value
2022-12-18T07:34:02.939Z,111.00
2022-12-18T07:36:15.456Z,138.00
2022-12-18T07:42:53.276Z,228.00
2022-12-18T07:48:35.900Z,303.00
2022-12-18T07:53:27.187Z,377.00
2022-12-18T07:54:35.640Z,361.00
2022-12-18T08:00:10.318Z,486.00
2022-12-18T08:01:06.141Z,500.00
2022-12-18T08:03:57.024Z,584.00
2022-12-18T08:04:54.461Z,562.00
2022-12-18T08:17:36.957Z,822.00
2022-12-18T08:21:59.502Z,885.00
2022-12-18T08:23:02.169Z,858.00
2022-12-18T08:24:00.019Z,873.00
2022-12-18T08:25:00.149Z,900.00
2022-12-18T08:26:00.143Z,903.00
2022-12-18T08:27:27.797Z,928.00
2022-12-18T08:37:21.517Z,1178.00
2022-12-18T08:38:22.430Z,1180.00
2022-12-18T08:39:25.254Z,1187.00
2022-12-18T08:40:22.430Z,1198.00
2022-12-18T08:41:22.451Z,1208.00
2022-12-18T08:42:22.469Z,1226.00
2022-12-18T08:43:22.438Z,1225.00
2022-12-18T08:44:22.474Z,1223.00
2022-12-18T08:45:22.578Z,1263.00
2022-12-18T08:46:22.484Z,1288.00
2022-12-18T08:49:41.985Z,1269.00
2022-12-18T08:50:38.493Z,1312.00
2022-12-18T08:51:39.391Z,1285.00
2022-12-18T08:52:39.297Z,1267.00
2022-12-18T08:53:40.071Z,1280.00
2022-12-18T08:54:40.037Z,1275.00
2022-12-18T08:55:39.266Z,1356.00
2022-12-18T08:56:40.038Z,1368.00
2022-12-18T08:57:39.362Z,1476.00
2022-12-18T08:58:41.163Z,1410.00
2022-12-18T08:59:39.251Z,1403.00
2022-12-18T09:00:39.223Z,1408.00
2022-12-18T09:01:39.378Z,1432.00
2022-12-18T09:02:39.408Z,1452.00
2022-12-18T09:03:39.765Z,1477.00
2022-12-18T09:09:29.705Z,1757.00
2022-12-18T09:10:29.487Z,1725.00
2022-12-18T09:11:29.724Z,1735.00
2022-12-18T09:12:29.608Z,1757.00
2022-12-18T09:13:29.551Z,1935.00
2022-12-18T09:14:29.537Z,1816.00
2022-12-18T09:15:29.474Z,1920.00
2022-12-18T09:16:32.292Z,1941.00
2022-12-18T09:17:29.462Z,2007.00
2022-12-18T09:18:29.467Z,2054.00
2022-12-18T09:19:29.503Z,2083.00
2022-12-18T09:20:29.477Z,2109.00
2022-12-18T09:21:29.431Z,2045.00
2022-12-18T09:22:29.475Z,2069.00
2022-12-18T09:23:29.402Z,2030.00
2022-12-18T09:24:29.404Z,1999.00
2022-12-18T09:25:29.375Z,1987.00
2022-12-18T09:26:29.383Z,1918.00
2022-12-18T09:27:29.539Z,1879.00
2022-12-18T09:28:29.370Z,1870.00
2022-12-18T09:29:29.398Z,1868.00
2022-12-18T09:30:29.406Z,1872.00
2022-12-18T09:31:29.342Z,1926.00
2022-12-18T09:32:29.348Z,1978.00
2022-12-18T09:33:29.934Z,1983.00
2022-12-18T09:34:30.300Z,1966.00
2022-12-18T09:35:30.408Z,1999.00
2022-12-18T09:52:57.481Z,2880.00
2022-12-18T09:53:48.588Z,2881.00
2022-12-18T09:59:52.340Z,2655.00
2022-12-18T10:13:47.555Z,2510.00
2022-12-18T10:14:05.488Z,2525.00
2022-12-18T10:20:43.873Z,2529.00
2022-12-18T10:27:35.083Z,2710.00
2022-12-18T10:28:43.060Z,2684.00
2022-12-18T10:30:55.611Z,2812.00
2022-12-18T10:31:54.559Z,2763.00
2022-12-18T10:32:54.448Z,2777.00
2022-12-18T10:33:54.294Z,2822.00
2022-12-18T10:35:00.028Z,2874.00
2022-12-18T10:35:54.448Z,2910.00
2022-12-18T10:36:54.315Z,2914.00
2022-12-18T10:37:54.284Z,2934.00
2022-12-18T10:38:54.871Z,2971.00
2022-12-18T10:43:03.272Z,3034.00
2022-12-18T10:43:43.320Z,3015.00
2022-12-18T10:44:36.217Z,3046.00
2022-12-18T10:51:10.346Z,3133.00
2022-12-18T10:53:37.420Z,3100.00
2022-12-18T10:56:10.460Z,3067.00
2022-12-18T11:00:38.588Z,3023.00
2022-12-18T11:01:23.000Z,3024.00
2022-12-18T11:02:23.135Z,3026.00
2022-12-18T11:03:22.730Z,3023.00
2022-12-18T11:04:33.089Z,3017.00
2022-12-18T11:05:22.671Z,3002.00
2022-12-18T11:06:46.449Z,3001.00
2022-12-18T11:07:22.784Z,2972.00
